createdAt,value
2023-03-22T00:01:55.498Z,56.74
2023-03-22T00:06:57.340Z,56.71
2023-03-22T00:11:59.107Z,56.64
2023-03-22T00:17:01.084Z,56.93
2023-03-22T00:22:03.701Z,57.00
2023-03-22T00:27:05.681Z,57.19
2023-03-22T00:32:07.458Z,57.05
2023-03-22T00:37:09.460Z,57.54
2023-03-22T00:42:11.453Z,57.56
2023-03-22T00:47:15.431Z,57.69
2023-03-22T00:52:17.337Z,58.13
2023-03-22T00:57:19.296Z,57.89
2023-03-22T01:02:21.133Z,57.98
2023-03-22T01:07:24.105Z,57.85
2023-03-22T01:12:26.112Z,57.83
2023-03-22T01:17:27.941Z,57.96
2023-03-22T01:22:29.877Z,58.05
2023-03-22T01:27:31.934Z,57.87
2023-03-22T01:32:34.041Z,57.86
2023-03-22T01:37:36.174Z,57.42
2023-03-22T01:42:38.207Z,57.26
2023-03-22T01:47:56.797Z,57.33
2023-03-22T01:53:00.652Z,57.22
2023-03-22T01:58:07.975Z,57.06
2023-03-22T02:03:35.851Z,56.88
2023-03-22T02:08:40.632Z,56.76
2023-03-22T02:14:09.225Z,56.58
2023-03-22T02:19:34.169Z,56.24
2023-03-22T02:25:00.635Z,56.28
2023-03-22T02:30:28.837Z,55.96
2023-03-22T02:35:52.629Z,55.45
2023-03-22T02:40:57.552Z,55.59
2023-03-22T02:46:02.407Z,55.83
2023-03-22T02:51:14.525Z,55.65
2023-03-22T02:56:39.468Z,55.25
2023-03-22T03:01:49.965Z,55.20
2023-03-22T03:06:55.489Z,55.21
2023-03-22T03:11:57.382Z,55.17
2023-03-22T03:17:06.989Z,55.39
2023-03-22T03:22:34.599Z,54.89
2023-03-22T03:27:44.407Z,55.28
2023-03-22T03:32:53.577Z,54.88
2023-03-22T03:38:10.483Z,54.87
2023-03-22T03:43:14.242Z,54.84
2023-03-22T03:48:21.664Z,54.42
2023-03-22T03:53:23.848Z,54.41
2023-03-22T03:58:25.848Z,54.15
2023-03-22T04:03:27.707Z,54.15
2023-03-22T04:08:56.710Z,54.14
2023-03-22T04:14:03.218Z,54.00
2023-03-22T04:19:05.181Z,53.95
2023-03-22T04:24:07.488Z,53.96
2023-03-22T04:29:13.697Z,53.89
2023-03-22T04:34:20.001Z,53.99
2023-03-22T04:39:28.922Z,53.92
2023-03-22T04:44:49.296Z,54.10
2023-03-22T04:49:51.356Z,54.31
2023-03-22T04:54:53.556Z,54.13
2023-03-22T04:59:55.663Z,54.59
2023-03-22T05:04:57.758Z,54.50
2023-03-22T05:10:10.765Z,54.35
2023-03-22T05:15:13.233Z,54.29
2023-03-22T05:20:15.202Z,54.31
2023-03-22T05:25:21.675Z,54.69
2023-03-22T05:30:24.261Z,54.67
2023-03-22T05:35:42.007Z,54.63
2023-03-22T05:40:45.734Z,54.70
2023-03-22T05:45:48.167Z,54.56
2023-03-22T05:51:10.556Z,55.04
2023-03-22T05:56:14.192Z,54.99
2023-03-22T06:01:20.546Z,54.65
2023-03-22T06:06:22.342Z,54.50
2023-03-22T06:11:35.552Z,54.28
2023-03-22T06:16:39.953Z,54.41
2023-03-22T06:21:42.424Z,54.64
2023-03-22T06:26:46.535Z,54.42
2023-03-22T06:31:48.724Z,54.32
2023-03-22T06:36:50.702Z,54.03
2023-03-22T06:42:19.018Z,54.01
2023-03-22T06:47:27.226Z,53.92
2023-03-22T06:52:44.375Z,53.74
2023-03-22T06:57:46.242Z,53.77
2023-03-22T07:02:48.080Z,53.73
2023-03-22T07:08:05.832Z,53.79
2023-03-22T07:13:11.346Z,53.62
2023-03-22T07:18:13.471Z,53.38
2023-03-22T07:23:16.613Z,53.22
2023-03-22T07:28:24.322Z,53.03
2023-03-22T07:33:27.144Z,52.96
2023-03-22T07:38:31.142Z,53.09
2023-03-22T07:43:41.450Z,52.49
2023-03-22T07:48:51.811Z,52.41
2023-03-22T07:54:17.742Z,51.49
2023-03-22T07:59:25.133Z,51.04
2023-03-22T08:04:28.210Z,50.25
2023-03-22T08:09:59.595Z,49.42
2023-03-22T08:15:01.863Z,48.79
2023-03-22T08:20:09.283Z,47.66
2023-03-22T08:25:22.155Z,47.55
2023-03-22T08:30:26.034Z,45.70
2023-03-22T08:35:28.860Z,44.83
2023-03-22T08:40:30.761Z,43.71
2023-03-22T08:45:36.159Z,44.40
2023-03-22T08:50:44.450Z,43.03
2023-03-22T08:56:01.535Z,42.25
2023-03-22T09:01:21.129Z,42.01
2023-03-22T09:06:30.637Z,42.06
2023-03-22T09:11:32.505Z,42.34
2023-03-22T09:16:35.113Z,41.78
2023-03-22T09:21:37.767Z,40.80
2023-03-22T09:26:50.525Z,41.11
2023-03-22T09:31:54.025Z,40.87
2023-03-22T09:37:02.417Z,40.40
2023-03-22T09:42:21.997Z,39.81
2023-03-22T09:47:44.423Z,39.96
2023-03-22T09:52:47.724Z,39.47
2023-03-22T09:58:17.234Z,40.04
2023-03-22T10:03:56.775Z,38.57
2023-03-22T10:09:14.643Z,38.99
2023-03-22T10:14:23.618Z,37.02
2023-03-22T10:19:35.317Z,37.80
2023-03-22T10:24:42.144Z,37.61
2023-03-22T10:29:51.247Z,37.38
2023-03-22T10:34:53.193Z,36.91
2023-03-22T10:39:57.114Z,36.85
2023-03-22T10:45:06.071Z,36.38
2023-03-22T10:50:22.767Z,36.42
2023-03-22T10:55:25.493Z,36.70
2023-03-22T11:00:28.877Z,36.15
2023-03-22T11:05:30.804Z,35.58
2023-03-22T11:10:33.515Z,35.75
2023-03-22T11:15:58.621Z,34.03
2023-03-22T11:21:09.945Z,33.87
2023-03-22T11:26:14.526Z,35.10
2023-03-22T11:31:18.644Z,34.58
2023-03-22T11:36:20.891Z,35.00
2023-03-22T11:41:29.964Z,34.57
2023-03-22T11:46:33.480Z,34.59
2023-03-22T11:51:38.906Z,33.81
2023-03-22T11:56:47.111Z,33.90
2023-03-22T12:02:41.823Z,34.05
2023-03-22T12:07:44.023Z,34.37
2023-03-22T12:12:53.290Z,34.49
2023-03-22T12:18:05.019Z,33.96
2023-03-22T12:23:21.312Z,33.79
2023-03-22T12:28:31.981Z,33.24
2023-03-22T12:33:49.872Z,33.00
2023-03-22T12:38:56.849Z,32.47
2023-03-22T12:44:06.015Z,32.53
2023-03-22T12:49:44.370Z,32.15
2023-03-22T12:54:48.969Z,31.99
2023-03-22T12:59:54.467Z,31.35
2023-03-22T13:04:59.261Z,31.53
2023-03-22T13:10:21.811Z,31.00
2023-03-22T13:15:41.700Z,30.86
2023-03-22T13:21:17.847Z,30.94
2023-03-22T13:26:22.160Z,30.80
2023-03-22T13:31:53.803Z,30.28
2023-03-22T13:36:56.811Z,29.83
2023-03-22T13:42:26.876Z,30.84
2023-03-22T13:47:36.180Z,30.38
2023-03-22T13:52:54.599Z,30.95
2023-03-22T13:58:00.415Z,30.78
2023-03-22T14:03:24.636Z,31.12
2023-03-22T14:08:29.332Z,31.44
2023-03-22T14:13:35.042Z,31.66
2023-03-22T14:18:42.316Z,32.16
